Time;durP1;ratioP1;P1;durP2;ratioP2;P2;SDS_P1;SDS_P2;PMS_P1;PMS_P2;Temp;Humidity;BMP_temperature;BMP_pressure;BME280_temperature;BME280_humidity;BME280_pressure;Samples;Min_cycle;Max_cycle;Signal;HPM_P1;HPM_P2
2024/01/06 00:01:46;;;;;;;8.70;2.53;;;5.70;99.90;;;;;;5036395;28;20371;-91
2024/01/06 00:04:12;;;;;;;6.30;2.05;;;5.70;99.90;;;;;;5021581;28;20137;-86
2024/01/06 00:06:37;;;;;;;9.10;2.53;;;5.70;99.90;;;;;;5023363;28;20474;-85
2024/01/06 00:09:03;;;;;;;6.72;2.03;;;5.70;99.90;;;;;;5027407;28;20060;-84
2024/01/06 00:11:29;;;;;;;5.45;2.17;;;5.60;99.90;;;;;;5021806;28;20029;-85
2024/01/06 00:13:57;;;;;;;12.13;2.22;;;5.60;99.90;;;;;;5023232;28;20037;-91
2024/01/06 00:16:22;;;;;;;8.63;2.90;;;5.60;99.90;;;;;;5020355;28;20503;-84
2024/01/06 00:18:48;;;;;;;5.30;2.35;;;5.60;99.90;;;;;;5017636;28;20026;-85
2024/01/06 00:21:14;;;;;;;12.45;2.55;;;5.70;99.90;;;;;;5024537;28;20120;-82
2024/01/06 00:23:40;;;;;;;14.18;3.45;;;5.70;99.90;;;;;;5024396;28;20025;-84
2024/01/06 00:26:06;;;;;;;11.15;2.50;;;5.80;99.90;;;;;;5021007;28;20492;-84
2024/01/06 00:28:32;;;;;;;15.40;3.10;;;5.80;99.90;;;;;;5023676;28;20121;-85
2024/01/06 00:30:57;;;;;;;17.13;3.80;;;5.70;99.90;;;;;;5024945;28;21658;-85
2024/01/06 00:33:23;;;;;;;9.10;2.67;;;5.70;99.90;;;;;;5025048;28;20492;-85
2024/01/06 00:35:49;;;;;;;6.30;2.58;;;5.70;99.90;;;;;;5032930;28;20109;-86
2024/01/06 00:38:15;;;;;;;7.82;2.58;;;5.70;99.90;;;;;;5020423;28;20030;-83
2024/01/06 00:40:41;;;;;;;9.90;2.88;;;5.70;99.90;;;;;;5019402;28;20056;-84
2024/01/06 00:43:06;;;;;;;10.18;3.03;;;5.70;99.90;;;;;;5017919;28;20041;-84
2024/01/06 00:45:32;;;;;;;5.05;2.25;;;5.70;99.90;;;;;;5019079;28;20025;-85
2024/01/06 00:47:57;;;;;;;6.22;2.50;;;5.70;99.90;;;;;;5024375;28;20025;-83
2024/01/06 00:50:23;;;;;;;8.43;2.50;;;5.60;99.90;;;;;;5024987;28;20033;-89
2024/01/06 00:52:52;;;;;;;9.32;2.75;;;5.70;99.90;;;;;;5025297;28;20418;-83
2024/01/06 00:55:18;;;;;;;6.30;2.38;;;5.80;99.90;;;;;;5023077;28;20049;-85
2024/01/06 00:57:45;;;;;;;8.15;2.30;;;5.70;99.90;;;;;;5022484;28;20030;-86
2024/01/06 01:00:12;;;;;;;7.22;2.33;;;5.70;99.90;;;;;;5023499;28;20462;-84
2024/01/06 01:02:38;;;;;;;7.20;2.30;;;5.70;99.90;;;;;;5021410;28;20411;-87
2024/01/06 01:05:04;;;;;;;10.13;2.85;;;5.70;99.90;;;;;;5018794;28;20041;-85
2024/01/06 01:07:30;;;;;;;5.00;2.42;;;5.60;99.90;;;;;;5021708;28;20021;-86
2024/01/06 01:09:56;;;;;;;20.25;5.93;;;5.60;99.90;;;;;;5021828;28;20037;-84
2024/01/06 01:12:23;;;;;;;8.13;2.40;;;5.60;99.90;;;;;;5010184;28;20026;-88
2024/01/06 01:14:49;;;;;;;6.85;2.83;;;5.60;99.90;;;;;;5023235;28;20198;-84
2024/01/06 01:17:15;;;;;;;7.00;2.63;;;5.60;99.90;;;;;;5021536;28;20064;-81
2024/01/06 01:19:40;;;;;;;10.50;2.80;;;5.60;99.90;;;;;;5023060;28;20107;-84
2024/01/06 01:22:06;;;;;;;5.03;2.17;;;5.60;99.90;;;;;;5032465;28;20030;-83
2024/01/06 01:24:31;;;;;;;11.85;3.05;;;5.60;99.90;;;;;;5020586;28;20057;-84
2024/01/06 01:26:57;;;;;;;4.38;2.22;;;5.60;99.90;;;;;;5021391;28;20025;-82
2024/01/06 01:29:23;;;;;;;3.83;2.40;;;5.50;99.90;;;;;;5020761;28;20026;-85
2024/01/06 01:31:48;;;;;;;5.93;2.42;;;5.50;99.90;;;;;;5022138;28;20033;-83
2024/01/06 01:34:14;;;;;;;9.57;2.25;;;5.50;99.90;;;;;;5022454;28;20028;-83
2024/01/06 01:36:40;;;;;;;9.75;2.70;;;5.60;99.90;;;;;;5023395;28;20450;-86
2024/01/06 01:39:05;;;;;;;11.88;3.10;;;5.70;99.90;;;;;;5022051;28;20034;-87
2024/01/06 01:41:31;;;;;;;10.65;2.97;;;5.70;99.90;;;;;;5025890;28;20078;-86
2024/01/06 01:44:00;;;;;;;13.38;2.75;;;5.70;99.90;;;;;;5029302;28;20109;-85
2024/01/06 01:46:27;;;;;;;8.32;2.17;;;5.70;99.90;;;;;;5025672;28;20025;-80
2024/01/06 01:48:55;;;;;;;4.32;2.00;;;5.70;99.90;;;;;;5030770;28;20021;-86
2024/01/06 01:51:21;;;;;;;6.55;2.65;;;5.70;99.90;;;;;;5023683;28;20044;-85
2024/01/06 01:53:50;;;;;;;11.18;2.53;;;5.70;99.90;;;;;;5026397;28;20025;-89
2024/01/06 01:56:16;;;;;;;8.77;2.33;;;5.70;99.90;;;;;;5025878;28;20041;-83
2024/01/06 01:58:42;;;;;;;21.75;3.22;;;5.60;99.90;;;;;;5023267;28;20033;-80
2024/01/06 02:01:09;;;;;;;14.70;2.55;;;5.60;99.90;;;;;;5025739;28;20028;-87
2024/01/06 02:03:35;;;;;;;10.80;2.28;;;5.60;99.90;;;;;;5021238;28;20032;-84
2024/01/06 02:06:01;;;;;;;11.40;2.92;;;5.60;99.90;;;;;;5027752;28;20076;-87
2024/01/06 02:08:26;;;;;;;7.00;2.53;;;5.60;99.90;;;;;;5024558;28;20049;-84
2024/01/06 02:10:55;;;;;;;6.05;2.50;;;5.60;99.90;;;;;;5028929;28;20030;-82
2024/01/06 02:13:21;;;;;;;8.07;2.60;;;5.60;99.90;;;;;;5028453;28;20025;-83
2024/01/06 02:15:46;;;;;;;14.52;2.85;;;5.60;99.90;;;;;;5025547;28;20560;-83
2024/01/06 02:18:12;;;;;;;7.07;2.55;;;5.60;99.90;;;;;;5029019;28;20014;-82
2024/01/06 02:20:39;;;;;;;9.20;2.30;;;5.60;99.90;;;;;;5029362;28;20025;-83
2024/01/06 02:23:04;;;;;;;9.65;2.35;;;5.60;99.90;;;;;;5022605;28;20026;-80
2024/01/06 02:25:30;;;;;;;11.38;2.30;;;5.50;99.90;;;;;;5024257;28;20044;-84
2024/01/06 02:27:55;;;;;;;12.38;2.92;;;5.50;99.90;;;;;;5023800;28;20021;-83
2024/01/06 02:30:21;;;;;;;6.63;2.63;;;5.60;99.90;;;;;;5025028;28;20033;-83
2024/01/06 02:32:47;;;;;;;8.10;2.22;;;5.50;99.90;;;;;;5022366;28;20030;-81
2024/01/06 02:35:12;;;;;;;15.98;2.72;;;5.50;99.90;;;;;;5029871;28;20927;-83
2024/01/06 02:37:38;;;;;;;10.45;2.58;;;5.60;99.90;;;;;;5023902;28;20022;-83
2024/01/06 02:40:04;;;;;;;13.48;3.30;;;5.60;99.90;;;;;;5028117;28;20021;-83
2024/01/06 02:42:29;;;;;;;16.63;4.13;;;5.60;99.90;;;;;;5023482;28;20543;-83
2024/01/06 02:44:55;;;;;;;4.45;2.38;;;5.60;99.90;;;;;;5024210;28;20036;-85
2024/01/06 02:47:21;;;;;;;9.32;2.75;;;5.60;99.90;;;;;;5030636;28;20112;-82
2024/01/06 02:49:46;;;;;;;15.98;3.22;;;5.60;99.90;;;;;;5026147;28;20037;-82
2024/01/06 02:52:12;;;;;;;6.13;2.55;;;5.60;99.90;;;;;;5024108;28;20225;-82
2024/01/06 02:54:37;;;;;;;12.50;2.97;;;5.60;99.90;;;;;;5028247;28;20424;-87
2024/01/06 02:57:03;;;;;;;12.02;2.80;;;5.60;99.90;;;;;;5023690;28;20030;-85
2024/01/06 02:59:29;;;;;;;17.98;3.63;;;5.70;99.90;;;;;;5026799;28;20438;-86
2024/01/06 03:01:54;;;;;;;15.38;3.00;;;5.70;99.90;;;;;;5029151;28;20467;-84
2024/01/06 03:04:20;;;;;;;9.23;2.60;;;5.70;99.90;;;;;;5025724;28;20056;-85
2024/01/06 03:06:53;;;;;;;10.88;2.28;;;5.70;99.90;;;;;;5024246;28;20394;-92
2024/01/06 03:09:19;;;;;;;11.25;2.30;;;5.70;99.90;;;;;;5025183;28;20037;-85
2024/01/06 03:11:45;;;;;;;9.68;2.40;;;5.70;99.90;;;;;;5033731;28;20041;-82
2024/01/06 03:14:10;;;;;;;12.30;3.28;;;5.70;99.90;;;;;;5020799;28;20026;-87
2024/01/06 03:16:36;;;;;;;8.90;2.72;;;5.70;99.90;;;;;;5022710;28;20046;-84
2024/01/06 03:19:01;;;;;;;6.53;2.38;;;5.70;99.90;;;;;;5029175;28;20044;-83
2024/01/06 03:21:27;;;;;;;8.50;2.55;;;5.70;99.90;;;;;;5024668;28;20028;-85
2024/01/06 03:23:55;;;;;;;9.13;3.13;;;5.70;99.90;;;;;;5027352;28;20056;-87
2024/01/06 03:26:21;;;;;;;9.02;2.53;;;5.70;99.90;;;;;;5022966;28;20033;-86
2024/01/06 03:28:49;;;;;;;14.35;4.22;;;5.70;99.90;;;;;;5023044;28;20434;-82
2024/01/06 03:31:16;;;;;;;11.63;2.40;;;5.70;99.90;;;;;;5022533;28;20014;-90
2024/01/06 03:33:43;;;;;;;6.88;1.92;;;5.70;99.90;;;;;;5021209;28;20047;-86
2024/01/06 03:36:12;;;;;;;6.68;2.20;;;5.80;99.90;;;;;;5024235;28;20041;-88
2024/01/06 03:38:37;;;;;;;5.13;1.75;;;5.70;99.90;;;;;;5027948;28;20036;-84
2024/01/06 03:41:03;;;;;;;8.40;2.67;;;5.70;99.90;;;;;;5020634;28;20470;-83
2024/01/06 03:43:29;;;;;;;10.50;3.15;;;5.60;99.90;;;;;;5029244;28;20091;-84
2024/01/06 03:45:56;;;;;;;11.63;3.90;;;5.60;99.90;;;;;;5018445;28;20093;-84
2024/01/06 03:48:22;;;;;;;6.90;2.65;;;5.60;99.90;;;;;;5023421;28;20021;-86
2024/01/06 03:50:47;;;;;;;4.00;2.30;;;5.60;99.90;;;;;;5018543;28;20052;-83
2024/01/06 03:53:13;;;;;;;6.20;2.75;;;5.60;99.90;;;;;;5023839;28;20056;-86
2024/01/06 03:55:38;;;;;;;5.90;2.53;;;5.60;99.90;;;;;;5019987;28;20399;-84
2024/01/06 03:58:04;;;;;;;13.68;2.60;;;5.50;99.90;;;;;;5020585;28;20029;-83
2024/01/06 04:00:29;;;;;;;8.27;2.90;;;5.50;99.90;;;;;;5026262;28;20412;-83
2024/01/06 04:02:55;;;;;;;5.82;2.58;;;5.50;99.90;;;;;;5020271;28;20032;-84
2024/01/06 04:05:20;;;;;;;7.57;2.17;;;5.50;99.90;;;;;;5016931;28;20049;-85
2024/01/06 04:07:46;;;;;;;3.00;1.98;;;5.50;99.90;;;;;;5026601;28;20414;-84
2024/01/06 04:10:12;;;;;;;4.55;2.03;;;5.50;99.90;;;;;;5027450;28;20025;-85
2024/01/06 04:12:37;;;;;;;6.28;2.95;;;5.50;99.90;;;;;;5023323;28;20032;-84
2024/01/06 04:15:03;;;;;;;16.92;2.65;;;5.50;99.90;;;;;;5024278;28;20044;-84
2024/01/06 04:17:29;;;;;;;6.00;2.42;;;5.50;99.90;;;;;;5022682;28;20565;-83
2024/01/06 04:19:55;;;;;;;7.75;2.35;;;5.40;99.90;;;;;;5025934;28;20478;-83
2024/01/06 04:22:21;;;;;;;5.78;2.00;;;5.40;99.90;;;;;;5026649;28;20018;-84
2024/01/06 04:24:47;;;;;;;13.77;2.30;;;5.40;99.90;;;;;;5030851;28;20044;-86
2024/01/06 04:27:12;;;;;;;16.40;2.92;;;5.50;99.90;;;;;;5022111;28;20029;-84
2024/01/06 04:29:39;;;;;;;10.15;3.17;;;5.50;99.90;;;;;;5022598;28;20543;-84
2024/01/06 04:32:06;;;;;;;3.63;1.92;;;5.50;99.90;;;;;;5016501;28;20029;-83
2024/01/06 04:34:31;;;;;;;6.72;2.30;;;5.40;99.90;;;;;;5017040;28;20390;-84
2024/01/06 04:36:57;;;;;;;2.38;2.10;;;5.40;99.90;;;;;;5013714;28;20038;-84
2024/01/06 04:39:23;;;;;;;3.30;1.75;;;5.40;99.90;;;;;;5030286;28;20029;-84
2024/01/06 04:41:49;;;;;;;9.48;2.70;;;5.40;99.90;;;;;;5028993;28;20030;-84
2024/01/06 04:44:14;;;;;;;5.90;2.15;;;5.40;99.90;;;;;;5011203;28;20050;-84
2024/01/06 04:46:40;;;;;;;7.03;2.15;;;5.40;99.90;;;;;;5023495;28;20432;-89
2024/01/06 04:49:06;;;;;;;12.70;2.50;;;5.40;99.90;;;;;;5016788;28;20133;-84
2024/01/06 04:51:32;;;;;;;2.40;1.85;;;5.40;99.90;;;;;;5012900;28;20065;-84
2024/01/06 04:53:57;;;;;;;7.38;2.63;;;5.30;99.90;;;;;;5023009;28;20025;-83
2024/01/06 04:56:23;;;;;;;5.35;2.03;;;5.30;99.90;;;;;;5027770;28;20045;-85
2024/01/06 04:58:48;;;;;;;5.53;2.30;;;5.30;99.90;;;;;;5027036;28;20095;-83
2024/01/06 05:01:14;;;;;;;5.10;1.90;;;5.30;99.90;;;;;;5026630;28;20381;-84
2024/01/06 05:03:43;;;;;;;10.18;2.63;;;5.30;99.90;;;;;;5026220;28;20041;-88
2024/01/06 05:06:09;;;;;;;6.82;2.28;;;5.30;99.90;;;;;;5022329;28;20565;-87
2024/01/06 05:08:38;;;;;;;6.82;2.13;;;5.30;99.90;;;;;;5025225;28;20048;-83
2024/01/06 05:11:05;;;;;;;5.00;2.10;;;5.20;99.90;;;;;;5025375;28;20128;-83
2024/01/06 05:13:30;;;;;;;9.27;2.25;;;5.20;99.90;;;;;;5019665;28;21238;-83
2024/01/06 05:15:56;;;;;;;8.38;2.70;;;5.20;99.90;;;;;;5015380;28;20069;-83
2024/01/06 05:18:24;;;;;;;4.82;1.85;;;5.20;99.90;;;;;;5022777;28;20029;-88
2024/01/06 05:20:50;;;;;;;10.40;2.50;;;5.20;99.90;;;;;;5024355;28;20076;-83
2024/01/06 05:23:15;;;;;;;19.25;4.65;;;5.20;99.90;;;;;;5022327;28;20052;-83
2024/01/06 05:25:41;;;;;;;7.43;2.20;;;5.20;99.90;;;;;;5030666;28;20355;-83
2024/01/06 05:28:06;;;;;;;5.05;2.33;;;5.20;99.90;;;;;;5025100;28;20029;-83
2024/01/06 05:30:32;;;;;;;8.05;3.70;;;5.20;99.90;;;;;;5027053;28;20108;-83
2024/01/06 05:32:57;;;;;;;9.38;2.17;;;5.20;99.90;;;;;;5020605;28;20508;-83
2024/01/06 05:35:23;;;;;;;8.27;1.98;;;5.20;99.90;;;;;;5020580;28;20505;-84
2024/01/06 05:37:49;;;;;;;4.85;2.00;;;5.20;99.90;;;;;;5021464;28;20036;-83
2024/01/06 05:40:14;;;;;;;6.55;1.88;;;5.20;99.90;;;;;;5020617;28;20025;-84
2024/01/06 05:42:40;;;;;;;7.05;2.05;;;5.20;99.90;;;;;;5030569;28;20030;-84
2024/01/06 05:45:06;;;;;;;4.60;1.65;;;5.20;99.90;;;;;;5026007;28;20033;-84
2024/01/06 05:47:32;;;;;;;6.07;1.90;;;5.20;99.90;;;;;;5023992;28;20068;-84
2024/01/06 05:49:57;;;;;;;10.27;2.10;;;5.20;99.90;;;;;;5025417;28;20040;-83
2024/01/06 05:52:23;;;;;;;6.53;2.08;;;5.20;99.90;;;;;;5020354;28;20040;-84
2024/01/06 05:54:49;;;;;;;5.28;2.13;;;5.20;99.90;;;;;;5019085;28;20232;-84
2024/01/06 05:57:14;;;;;;;4.82;2.20;;;5.30;99.90;;;;;;5021755;28;20035;-84
2024/01/06 05:59:40;;;;;;;3.88;1.80;;;5.20;99.90;;;;;;5019297;28;20034;-84
2024/01/06 06:02:06;;;;;;;9.63;2.40;;;5.20;99.90;;;;;;5020559;28;20033;-83
2024/01/06 06:04:31;;;;;;;11.52;2.50;;;5.10;99.90;;;;;;5023175;28;20296;-84
2024/01/06 06:06:57;;;;;;;6.28;2.42;;;5.20;99.90;;;;;;5019996;28;20024;-85
2024/01/06 06:09:28;;;;;;;7.25;2.20;;;5.10;99.90;;;;;;5020626;28;20018;-88
2024/01/06 06:11:53;;;;;;;9.55;2.53;;;5.10;99.90;;;;;;5017275;28;21441;-84
2024/01/06 06:14:19;;;;;;;10.57;2.85;;;5.10;99.90;;;;;;5015301;28;20615;-83
2024/01/06 06:16:45;;;;;;;13.23;3.72;;;5.00;99.90;;;;;;5024751;28;20038;-83
2024/01/06 06:19:10;;;;;;;28.85;12.57;;;5.00;99.90;;;;;;5025626;28;20037;-83
2024/01/06 06:21:36;;;;;;;33.15;14.63;;;4.90;99.90;;;;;;5022163;28;20017;-82
2024/01/06 06:24:02;;;;;;;29.58;11.85;;;4.90;99.90;;;;;;5024723;28;20026;-83
2024/01/06 06:26:28;;;;;;;26.02;13.60;;;4.90;99.90;;;;;;5022005;28;20033;-83
2024/01/06 06:28:54;;;;;;;37.30;15.38;;;4.80;99.90;;;;;;5023249;28;20109;-83
2024/01/06 06:31:19;;;;;;;36.08;16.08;;;4.80;99.90;;;;;;5022793;28;20080;-83
2024/01/06 06:33:45;;;;;;;29.88;15.13;;;4.80;99.90;;;;;;5019944;28;20025;-83
2024/01/06 06:36:11;;;;;;;32.40;15.88;;;4.80;99.90;;;;;;5023040;28;20037;-86
2024/01/06 06:38:36;;;;;;;29.52;14.75;;;4.70;99.90;;;;;;5020741;28;20100;-83
2024/01/06 06:41:02;;;;;;;39.55;17.67;;;4.80;99.90;;;;;;5025221;28;20145;-86
2024/01/06 06:43:27;;;;;;;33.72;16.02;;;4.70;99.90;;;;;;5026224;28;20017;-83
2024/01/06 06:45:56;;;;;;;23.98;13.50;;;4.70;99.90;;;;;;5020704;28;20168;-84
2024/01/06 06:48:22;;;;;;;24.88;12.93;;;4.70;99.90;;;;;;5024184;28;20044;-85
2024/01/06 06:50:47;;;;;;;29.95;11.85;;;4.70;99.90;;;;;;5025243;28;20030;-83
2024/01/06 06:53:15;;;;;;;18.58;8.82;;;4.80;99.90;;;;;;5021150;28;20021;-83
2024/01/06 06:55:40;;;;;;;14.57;6.60;;;4.80;99.90;;;;;;5022156;28;20045;-83
2024/01/06 06:58:06;;;;;;;10.82;5.20;;;4.80;99.90;;;;;;5024761;28;20028;-83
2024/01/06 07:00:32;;;;;;;9.45;4.75;;;4.90;99.90;;;;;;5024354;28;20025;-82
2024/01/06 07:02:58;;;;;;;8.85;4.32;;;4.90;99.90;;;;;;5020050;28;20033;-83
2024/01/06 07:05:24;;;;;;;12.00;6.00;;;4.90;99.90;;;;;;5020276;28;20060;-83
2024/01/06 07:07:49;;;;;;;12.68;7.57;;;4.90;99.90;;;;;;5018044;28;20471;-83
2024/01/06 07:10:15;;;;;;;12.50;7.50;;;4.90;99.90;;;;;;5010581;28;20447;-83
2024/01/06 07:12:41;;;;;;;15.80;8.50;;;4.90;99.90;;;;;;5021986;28;20462;-83
2024/01/06 07:15:09;;;;;;;16.45;7.85;;;4.90;99.90;;;;;;5021146;28;20117;-83
2024/01/06 07:17:47;;;;;;;13.90;7.68;;;4.80;99.90;;;;;;5028501;28;20044;-87
2024/01/06 07:20:13;;;;;;;20.33;10.27;;;4.90;99.90;;;;;;5021311;28;20034;-82
2024/01/06 07:22:39;;;;;;;21.70;10.50;;;4.90;99.90;;;;;;5022089;28;20280;-84
2024/01/06 07:25:07;;;;;;;19.98;11.23;;;4.90;99.90;;;;;;5018061;28;20040;-87
2024/01/06 07:27:33;;;;;;;18.25;11.20;;;4.80;99.90;;;;;;5022570;28;20053;-83
2024/01/06 07:29:59;;;;;;;18.75;11.45;;;4.90;99.90;;;;;;5025651;28;20052;-84
2024/01/06 07:32:25;;;;;;;17.95;11.13;;;4.90;99.90;;;;;;5016919;28;20026;-82
2024/01/06 07:34:51;;;;;;;23.27;12.77;;;4.90;99.90;;;;;;5031848;28;20032;-87
2024/01/06 07:37:16;;;;;;;23.83;12.52;;;4.80;99.90;;;;;;5032665;28;20041;-86
2024/01/06 07:39:42;;;;;;;24.13;12.57;;;4.80;99.90;;;;;;5018458;28;20379;-84
2024/01/06 07:42:08;;;;;;;25.65;14.13;;;4.80;99.90;;;;;;5020827;28;20083;-83
2024/01/06 07:44:34;;;;;;;22.65;12.10;;;4.70;99.90;;;;;;5026257;28;20025;-82
2024/01/06 07:47:01;;;;;;;26.23;14.68;;;4.70;99.90;;;;;;5024039;28;20040;-83
2024/01/06 07:49:27;;;;;;;30.35;15.00;;;4.70;99.90;;;;;;5010896;28;20026;-83
2024/01/06 07:51:53;;;;;;;23.63;14.00;;;4.70;99.90;;;;;;5033702;28;20083;-84
2024/01/06 07:54:18;;;;;;;24.63;14.63;;;4.70;99.90;;;;;;5023531;28;20132;-83
2024/01/06 07:56:45;;;;;;;30.02;15.40;;;4.70;99.90;;;;;;5021125;28;20053;-83
2024/01/06 07:59:11;;;;;;;30.25;16.25;;;4.70;99.90;;;;;;5019604;28;20041;-83
2024/01/06 08:01:37;;;;;;;30.92;16.83;;;4.70;99.90;;;;;;5020375;28;20021;-86
2024/01/06 08:04:03;;;;;;;29.80;17.67;;;4.60;99.90;;;;;;5029702;28;20025;-84
2024/01/06 08:06:29;;;;;;;26.90;15.63;;;4.60;99.90;;;;;;5025686;28;20033;-82
2024/01/06 08:08:54;;;;;;;26.10;15.68;;;4.60;99.90;;;;;;5015585;28;20028;-84
2024/01/06 08:11:20;;;;;;;27.40;15.75;;;4.60;99.90;;;;;;5023451;28;20052;-83
2024/01/06 08:13:46;;;;;;;23.45;14.20;;;4.60;99.90;;;;;;5023521;28;20090;-83
2024/01/06 08:16:12;;;;;;;23.77;14.50;;;4.60;99.90;;;;;;5025690;28;20037;-83
2024/01/06 08:18:38;;;;;;;27.27;15.70;;;4.60;99.90;;;;;;5022793;28;20025;-84
2024/01/06 08:21:03;;;;;;;24.58;14.85;;;4.60;99.90;;;;;;5024163;28;20092;-84
2024/01/06 08:23:29;;;;;;;24.98;15.13;;;4.60;99.90;;;;;;5019246;28;20029;-83
2024/01/06 08:25:55;;;;;;;22.67;14.30;;;4.60;99.90;;;;;;5024000;28;20057;-84
2024/01/06 08:28:23;;;;;;;22.95;14.18;;;4.60;99.90;;;;;;5024631;28;20032;-84
2024/01/06 08:30:48;;;;;;;26.50;15.43;;;4.60;99.90;;;;;;5022100;28;20525;-84
2024/01/06 08:33:17;;;;;;;27.83;16.42;;;4.60;99.90;;;;;;5023548;28;20021;-83
2024/01/06 08:35:43;;;;;;;27.17;17.20;;;4.60;99.90;;;;;;5022670;28;20037;-83
2024/01/06 08:38:12;;;;;;;27.63;16.50;;;4.60;99.90;;;;;;5025629;28;20037;-87
2024/01/06 08:40:37;;;;;;;25.60;16.27;;;4.60;99.90;;;;;;5021439;28;20021;-83
2024/01/06 08:43:03;;;;;;;31.10;16.70;;;4.60;99.90;;;;;;5027816;28;20038;-84
2024/01/06 08:45:29;;;;;;;26.92;17.65;;;4.60;99.90;;;;;;5017247;28;20033;-84
2024/01/06 08:47:56;;;;;;;27.17;16.90;;;4.60;99.90;;;;;;5023801;28;20429;-84
2024/01/06 08:50:22;;;;;;;28.10;17.40;;;4.60;99.90;;;;;;5022967;28;20096;-84
2024/01/06 08:52:48;;;;;;;32.33;19.55;;;4.50;99.90;;;;;;5023758;28;20029;-83
2024/01/06 08:55:16;;;;;;;30.75;19.60;;;4.50;99.90;;;;;;5020810;28;20087;-83
2024/01/06 08:57:42;;;;;;;28.02;18.25;;;4.50;99.90;;;;;;5021584;28;20109;-83
2024/01/06 09:00:09;;;;;;;25.90;16.83;;;4.50;99.90;;;;;;5027592;28;20113;-83
2024/01/06 09:02:34;;;;;;;30.60;17.52;;;4.50;99.90;;;;;;5016098;28;20025;-84
2024/01/06 09:05:00;;;;;;;29.02;16.90;;;4.50;99.90;;;;;;5023675;28;20048;-83
2024/01/06 09:07:35;;;;;;;27.23;17.00;;;4.50;99.90;;;;;;5020457;28;20029;-84
2024/01/06 09:10:00;;;;;;;27.40;17.08;;;4.50;99.90;;;;;;5019852;28;20076;-83
2024/01/06 09:12:26;;;;;;;26.33;16.85;;;4.50;99.90;;;;;;5026564;28;20038;-83
2024/01/06 09:14:52;;;;;;;30.30;17.20;;;4.50;99.90;;;;;;5022102;28;20386;-83
2024/01/06 09:17:17;;;;;;;30.80;18.60;;;4.50;99.90;;;;;;5021384;28;20094;-84
2024/01/06 09:19:43;;;;;;;30.80;19.52;;;4.50;99.90;;;;;;5022591;28;20072;-83
2024/01/06 09:22:08;;;;;;;37.38;20.60;;;4.50;99.90;;;;;;5014295;28;20037;-83
2024/01/06 09:24:37;;;;;;;37.03;19.92;;;4.40;99.90;;;;;;5023194;28;20026;-85
2024/01/06 09:27:03;;;;;;;36.53;19.23;;;4.40;99.90;;;;;;5021101;28;20041;-82
2024/01/06 09:29:29;;;;;;;41.38;23.10;;;4.40;99.90;;;;;;5023050;28;20021;-83
2024/01/06 09:31:54;;;;;;;37.70;21.08;;;4.40;99.90;;;;;;5026111;28;20025;-83
2024/01/06 09:34:20;;;;;;;35.45;20.23;;;4.40;99.90;;;;;;5019545;28;20018;-83
2024/01/06 09:36:46;;;;;;;31.88;20.05;;;4.40;99.90;;;;;;5020193;28;20042;-83
2024/01/06 09:39:11;;;;;;;41.67;22.15;;;4.40;99.90;;;;;;5016029;28;20107;-83
2024/01/06 09:41:37;;;;;;;40.80;24.30;;;4.40;99.90;;;;;;5019056;28;20060;-84
2024/01/06 09:44:02;;;;;;;34.47;22.17;;;4.40;99.90;;;;;;5015385;28;20076;-83
2024/01/06 09:46:30;;;;;;;37.25;21.88;;;4.30;99.90;;;;;;5015642;28;20350;-83
2024/01/06 09:48:57;;;;;;;35.65;21.35;;;4.30;99.90;;;;;;5017000;28;20060;-83
2024/01/06 09:51:23;;;;;;;33.60;21.17;;;4.40;99.90;;;;;;5015015;28;20116;-83
2024/01/06 09:53:51;;;;;;;36.80;21.42;;;4.40;99.90;;;;;;5018487;28;20034;-83
2024/01/06 09:56:17;;;;;;;39.00;23.70;;;4.40;99.90;;;;;;5014644;28;20046;-83
2024/01/06 09:58:44;;;;;;;48.28;25.83;;;4.30;99.90;;;;;;5014601;28;20030;-83
2024/01/06 10:01:11;;;;;;;58.70;33.40;;;4.40;99.90;;;;;;5013749;28;20734;-83
2024/01/06 10:03:37;;;;;;;61.47;31.55;;;4.30;99.90;;;;;;5015946;28;20476;-83
2024/01/06 10:06:04;;;;;;;49.38;28.02;;;4.40;99.90;;;;;;5016609;28;20069;-83
2024/01/06 10:08:32;;;;;;;46.50;26.00;;;4.30;99.90;;;;;;5019039;28;20072;-83
2024/01/06 10:10:59;;;;;;;39.08;21.98;;;4.30;99.90;;;;;;5019393;28;20315;-83
2024/01/06 10:13:25;;;;;;;37.55;21.17;;;4.40;99.90;;;;;;5015599;28;20485;-83
2024/01/06 10:15:51;;;;;;;31.63;19.98;;;4.40;99.90;;;;;;5020267;28;21087;-83
2024/01/06 10:18:16;;;;;;;39.15;22.40;;;4.40;99.90;;;;;;5019630;28;20068;-83
2024/01/06 10:20:45;;;;;;;31.73;20.00;;;4.40;99.90;;;;;;5021796;28;20040;-83
2024/01/06 10:23:10;;;;;;;35.38;20.90;;;4.40;99.90;;;;;;5021323;28;20029;-84
2024/01/06 10:25:37;;;;;;;36.80;21.33;;;4.40;99.90;;;;;;5022871;28;20022;-83
2024/01/06 10:28:03;;;;;;;33.85;21.00;;;4.40;99.90;;;;;;5021430;28;20056;-84
2024/01/06 10:30:29;;;;;;;34.55;20.38;;;4.40;99.90;;;;;;5023166;28;20036;-82
2024/01/06 10:32:54;;;;;;;33.75;20.85;;;4.40;99.90;;;;;;5025624;28;20021;-82
2024/01/06 10:35:20;;;;;;;33.42;19.58;;;4.40;99.90;;;;;;5022101;28;20047;-82
2024/01/06 10:37:48;;;;;;;33.53;19.73;;;4.40;99.90;;;;;;5019404;28;20030;-82
2024/01/06 10:40:16;;;;;;;33.75;21.35;;;4.40;99.90;;;;;;5024611;28;20025;-83
2024/01/06 10:42:43;;;;;;;29.55;17.85;;;4.30;99.90;;;;;;5024084;28;20037;-82
2024/01/06 10:45:13;;;;;;;34.78;18.17;;;4.30;99.90;;;;;;5021448;28;20041;-86
2024/01/06 10:47:40;;;;;;;30.10;18.60;;;4.30;99.90;;;;;;5027072;28;20204;-84
2024/01/06 10:50:07;;;;;;;31.23;17.73;;;4.20;99.90;;;;;;5023475;28;20028;-83
2024/01/06 10:52:34;;;;;;;31.70;19.75;;;4.20;99.90;;;;;;5025557;28;20034;-82
2024/01/06 10:55:01;;;;;;;28.83;18.33;;;4.20;99.90;;;;;;5026712;28;20025;-83
2024/01/06 10:57:28;;;;;;;34.55;19.77;;;4.30;99.90;;;;;;5022664;28;20040;-82
2024/01/06 10:59:55;;;;;;;43.83;23.25;;;4.20;99.90;;;;;;5024584;28;20382;-83
2024/01/06 11:02:28;;;;;;;40.10;22.55;;;4.20;99.90;;;;;;5024538;28;20099;-84
2024/01/06 11:04:53;;;;;;;41.47;23.42;;;4.20;99.90;;;;;;5026617;28;20045;-82
2024/01/06 11:07:23;;;;;;;40.97;22.17;;;4.20;99.90;;;;;;5036311;28;20033;-82
2024/01/06 11:10:06;;;;;;;33.17;20.90;;;4.20;99.90;;;;;;5021287;28;20116;-82
2024/01/06 11:12:33;;;;;;;34.90;20.63;;;4.20;99.90;;;;;;5019315;28;20489;-83
2024/01/06 11:14:59;;;;;;;29.92;18.65;;;4.20;99.90;;;;;;5023330;28;20053;-82
2024/01/06 11:18:00;;;;;;;24.38;15.95;;;4.20;99.90;;;;;;5015878;28;20045;-82
2024/01/06 11:20:32;;;;;;;26.85;15.95;;;4.10;99.90;;;;;;5016860;28;20026;-82
2024/01/06 11:23:20;;;;;;;27.60;17.30;;;4.20;99.90;;;;;;5025430;28;20516;-82
2024/01/06 11:25:46;;;;;;;32.40;19.65;;;4.10;99.90;;;;;;5019585;28;20041;-83
2024/01/06 11:28:12;;;;;;;30.75;18.25;;;4.10;99.90;;;;;;5024938;28;20025;-82
2024/01/06 11:30:39;;;;;;;36.85;22.27;;;4.10;99.90;;;;;;5029544;28;20048;-82
2024/01/06 11:33:04;;;;;;;34.53;19.30;;;4.10;99.90;;;;;;5027992;28;20229;-82
2024/01/06 11:35:30;;;;;;;35.65;21.50;;;4.00;99.90;;;;;;5021216;28;20405;-82
2024/01/06 11:38:03;;;;;;;38.15;21.63;;;4.00;99.90;;;;;;5027140;28;20029;-82
2024/01/06 11:40:34;;;;;;;44.05;21.00;;;3.90;99.90;;;;;;5026802;28;20524;-82
2024/01/06 11:43:09;;;;;;;34.50;19.98;;;3.90;99.90;;;;;;5022031;28;20112;-82
2024/01/06 11:45:36;;;;;;;32.90;21.60;;;3.90;99.90;;;;;;5021436;28;20017;-82
2024/01/06 11:48:06;;;;;;;43.25;22.60;;;3.90;99.90;;;;;;5019344;28;20026;-82
2024/01/06 11:50:34;;;;;;;34.10;20.23;;;3.90;99.90;;;;;;5030699;28;20036;-82
2024/01/06 11:53:01;;;;;;;29.67;19.77;;;3.90;99.90;;;;;;5020020;28;20387;-83
2024/01/06 11:55:34;;;;;;;31.65;20.73;;;3.90;99.90;;;;;;5024098;28;20059;-82
2024/01/06 11:58:02;;;;;;;33.97;21.55;;;3.90;99.90;;;;;;5017994;28;20025;-84
2024/01/06 12:00:33;;;;;;;33.20;21.75;;;3.90;99.90;;;;;;5024013;28;20325;-83
2024/01/06 12:03:01;;;;;;;30.88;20.63;;;3.90;99.90;;;;;;5024558;28;20486;-82
2024/01/06 12:05:27;;;;;;;35.13;21.67;;;3.90;99.90;;;;;;5022950;28;20471;-82
2024/01/06 12:08:11;;;;;;;40.55;25.02;;;3.90;99.90;;;;;;5024516;28;20044;-82
2024/01/06 12:10:37;;;;;;;37.58;24.00;;;3.90;99.90;;;;;;5018184;28;20033;-84
2024/01/06 12:13:10;;;;;;;34.17;22.85;;;4.00;99.90;;;;;;5024536;28;21277;-83
2024/01/06 12:15:39;;;;;;;34.28;21.83;;;3.90;99.90;;;;;;5013777;28;20136;-83
2024/01/06 12:18:06;;;;;;;33.22;21.77;;;3.90;99.90;;;;;;5014478;28;20030;-84
2024/01/06 12:20:32;;;;;;;36.90;22.80;;;3.90;99.90;;;;;;5023378;28;20025;-82
2024/01/06 12:22:59;;;;;;;41.20;23.38;;;4.00;99.90;;;;;;5020754;28;20025;-83
2024/01/06 12:25:26;;;;;;;34.03;21.17;;;3.90;99.90;;;;;;5009132;28;20029;-83
2024/01/06 12:27:53;;;;;;;28.92;18.10;;;3.90;99.90;;;;;;5021128;28;20124;-82
2024/01/06 12:30:20;;;;;;;33.20;19.88;;;3.80;99.90;;;;;;5014532;28;20053;-82
2024/01/06 12:32:48;;;;;;;32.05;19.10;;;3.80;99.90;;;;;;5028547;28;20039;-85
2024/01/06 12:35:15;;;;;;;33.13;18.42;;;3.80;99.90;;;;;;5007322;28;20041;-84
2024/01/06 12:37:47;;;;;;;40.00;19.63;;;3.90;99.90;;;;;;5015164;28;20486;-83
2024/01/06 12:40:14;;;;;;;33.20;20.15;;;3.80;99.90;;;;;;5024435;28;20076;-83
2024/01/06 12:42:40;;;;;;;49.22;26.05;;;3.80;99.90;;;;;;5017947;28;20398;-83